createdAt,value
2022-11-30T00:00:24.633Z,102344.47
2022-11-30T00:00:56.474Z,102351.47
2022-11-30T00:01:30.664Z,102340.00
2022-11-30T00:02:02.147Z,102352.16
2022-11-30T00:02:34.822Z,102348.16
2022-11-30T00:03:08.548Z,102355.97
2022-11-30T00:03:40.482Z,102357.09
2022-11-30T00:04:14.544Z,102340.66
2022-11-30T00:04:46.208Z,102351.19
2022-11-30T00:05:17.853Z,102353.91
2022-11-30T00:05:49.323Z,102355.19
2022-11-30T00:06:41.550Z,102352.16
2022-11-30T00:07:12.985Z,102345.91
2022-11-30T00:07:44.417Z,102356.78
2022-11-30T00:08:16.021Z,102352.16
2022-11-30T00:08:47.373Z,102353.25
2022-11-30T00:09:18.743Z,102347.34
2022-11-30T00:09:50.054Z,102352.16
2022-11-30T00:10:27.847Z,102352.94
2022-11-30T00:10:59.223Z,102342.56
2022-11-30T00:11:30.757Z,102360.59
2022-11-30T00:12:02.115Z,102352.78
2022-11-30T00:12:36.749Z,102357.41
2022-11-30T00:13:08.640Z,102365.41
2022-11-30T00:13:40.677Z,102358.69
2022-11-30T00:14:12.131Z,102360.28
2022-11-30T00:14:43.607Z,102356.78
2022-11-30T00:15:17.412Z,102358.06
2022-11-30T00:15:49.072Z,102360.78
2022-11-30T00:16:20.832Z,102360.78
2022-11-30T00:16:52.294Z,102354.06
2022-11-30T00:17:23.861Z,102355.19
2022-11-30T00:17:59.000Z,102358.06
2022-11-30T00:18:33.132Z,102352.16
2022-11-30T00:19:04.480Z,102354.38
2022-11-30T00:19:35.798Z,102352.94
2022-11-30T00:20:09.130Z,102359.19
2022-11-30T00:20:40.551Z,102354.06
2022-11-30T00:21:13.844Z,102358.38
2022-11-30T00:21:48.124Z,102353.25
2022-11-30T00:22:19.589Z,102351.97
2022-11-30T00:22:51.002Z,102354.38
2022-11-30T00:23:22.501Z,102351.50
2022-11-30T00:23:56.399Z,102352.31
2022-11-30T00:24:30.769Z,102363.00
2022-11-30T00:25:04.656Z,102356.78
2022-11-30T00:25:37.327Z,102359.00
2022-11-30T00:26:12.805Z,102353.09
2022-11-30T00:26:44.211Z,102351.97
2022-11-30T00:27:15.549Z,102358.22
2022-11-30T00:27:47.064Z,102369.25
2022-11-30T00:28:18.434Z,102361.41
2022-11-30T00:28:49.836Z,102357.41
2022-11-30T00:29:21.316Z,102365.25
2022-11-30T00:29:52.671Z,102360.13
2022-11-30T00:30:24.121Z,102362.53
2022-11-30T00:31:04.617Z,102360.13
2022-11-30T00:31:36.137Z,102363.81
2022-11-30T00:32:07.460Z,102357.91
2022-11-30T00:32:39.021Z,102362.03
2022-11-30T00:33:10.473Z,102364.13
2022-11-30T00:33:44.467Z,102366.03
2022-11-30T00:34:19.106Z,102366.84
2022-11-30T00:34:50.565Z,102365.25
2022-11-30T00:35:22.053Z,102366.03
2022-11-30T00:35:57.960Z,102372.28
2022-11-30T00:36:29.717Z,102365.25
2022-11-30T00:37:01.179Z,102353.91
2022-11-30T00:37:34.644Z,102355.97
2022-11-30T00:38:06.035Z,102353.91
2022-11-30T00:38:37.858Z,102346.06
2022-11-30T00:39:09.317Z,102357.91
2022-11-30T00:39:40.998Z,102352.16
2022-11-30T00:40:13.029Z,102357.56
2022-11-30T00:40:46.778Z,102359.19
2022-11-30T00:41:21.879Z,102354.88
2022-11-30T00:41:53.320Z,102359.50
2022-11-30T00:42:24.738Z,102354.69
2022-11-30T00:42:56.515Z,102345.44
2022-11-30T00:43:28.787Z,102348.63
2022-11-30T00:44:00.277Z,102349.44
2022-11-30T00:44:50.130Z,102349.59
2022-11-30T00:45:21.621Z,102349.75
2022-11-30T00:45:53.996Z,102343.34
2022-11-30T00:46:25.486Z,102337.13
2022-11-30T00:46:56.858Z,102343.53
2022-11-30T00:47:28.267Z,102353.91
2022-11-30T00:47:59.630Z,102352.78
2022-11-30T00:48:31.216Z,102344.16
2022-11-30T00:49:02.674Z,102355.19
2022-11-30T00:49:37.083Z,102342.25
2022-11-30T00:50:09.119Z,102344.16
2022-11-30T00:50:40.712Z,102350.38
2022-11-30T00:51:12.543Z,102349.41
2022-11-30T00:51:43.916Z,102343.19
2022-11-30T00:52:15.345Z,102345.09
2022-11-30T00:52:46.705Z,102349.91
2022-11-30T00:53:18.825Z,102354.53
2022-11-30T00:53:50.273Z,102351.03
2022-11-30T00:54:21.897Z,102347.03
2022-11-30T00:54:53.321Z,102342.72
2022-11-30T00:55:24.756Z,102351.66
2022-11-30T00:55:56.503Z,102351.34
2022-11-30T00:56:30.298Z,102349.25
2022-11-30T00:57:01.735Z,102349.41
2022-11-30T00:57:33.471Z,102359.16
2022-11-30T00:58:07.094Z,102351.34
2022-11-30T00:58:38.910Z,102350.53
2022-11-30T00:59:28.635Z,102361.88
2022-11-30T01:00:00.001Z,102358.69
2022-11-30T01:00:31.374Z,102357.88
2022-11-30T01:01:03.234Z,102360.91
2022-11-30T01:01:35.852Z,102354.38
2022-11-30T01:02:07.418Z,102353.09
2022-11-30T01:02:38.859Z,102358.19
2022-11-30T01:03:10.374Z,102360.13
2022-11-30T01:03:41.761Z,102366.34
2022-11-30T01:04:17.206Z,102356.59
2022-11-30T01:04:52.031Z,102358.50
2022-11-30T01:05:23.417Z,102359.31
2022-11-30T01:05:55.030Z,102348.63
2022-11-30T01:06:26.618Z,102356.13
2022-11-30T01:06:58.160Z,102359.16
2022-11-30T01:07:29.665Z,102354.88
2022-11-30T01:08:02.870Z,102361.53
2022-11-30T01:08:34.948Z,102360.75
2022-11-30T01:09:09.289Z,102357.91
2022-11-30T01:09:41.021Z,102355.19
2022-11-30T01:10:12.562Z,102360.28
2022-11-30T01:10:44.581Z,102358.34
2022-11-30T01:11:23.854Z,102363.78
2022-11-30T01:11:55.213Z,102356.44
2022-11-30T01:12:26.648Z,102363.78
2022-11-30T01:12:58.013Z,102360.63
2022-11-30T01:13:29.873Z,102359.00
2022-11-30T01:14:02.375Z,102356.63
2022-11-30T01:14:52.276Z,102352.00
2022-11-30T01:15:23.783Z,102364.94
2022-11-30T01:15:55.256Z,102359.34
2022-11-30T01:16:29.930Z,102370.66
2022-11-30T01:17:01.331Z,102361.72
2022-11-30T01:17:51.464Z,102366.34
2022-11-30T01:18:24.278Z,102358.06
2022-11-30T01:18:56.034Z,102360.75
2022-11-30T01:19:27.485Z,102356.44
2022-11-30T01:19:59.101Z,102366.19
2022-11-30T01:20:30.587Z,102363.31
2022-11-30T01:21:06.173Z,102361.41
2022-11-30T01:21:38.261Z,102358.69
2022-11-30T01:22:09.680Z,102362.19
2022-11-30T01:22:41.083Z,102372.72
2022-11-30T01:23:12.644Z,102363.63
2022-11-30T01:23:45.653Z,102371.13
2022-11-30T01:24:17.049Z,102366.03
2022-11-30T01:24:48.727Z,102371.13
2022-11-30T01:25:20.328Z,102369.53
2022-11-30T01:25:55.425Z,102372.72
2022-11-30T01:26:26.888Z,102367.94
2022-11-30T01:26:58.220Z,102365.72
2022-11-30T01:27:29.545Z,102367.31
2022-11-30T01:28:03.958Z,102370.34
2022-11-30T01:28:37.819Z,102366.34
2022-11-30T01:29:09.174Z,102367.94
2022-11-30T01:29:41.394Z,102360.13
2022-11-30T01:30:14.751Z,102371.44
2022-11-30T01:30:56.209Z,102372.25
2022-11-30T01:31:27.704Z,102367.94
2022-11-30T01:31:59.053Z,102369.84
2022-11-30T01:32:30.609Z,102371.94
2022-11-30T01:33:03.927Z,102377.38
2022-11-30T01:33:36.054Z,102371.44
2022-11-30T01:34:07.571Z,102374.97
2022-11-30T01:34:41.290Z,102372.56
2022-11-30T01:35:12.958Z,102364.75
2022-11-30T01:35:44.469Z,102365.06
2022-11-30T01:36:19.151Z,102372.56
2022-11-30T01:36:50.492Z,102368.56
2022-11-30T01:37:21.951Z,102370.47
2022-11-30T01:37:53.862Z,102371.44
2022-11-30T01:38:25.236Z,102371.44
2022-11-30T01:38:57.992Z,102374.16
2022-11-30T01:39:29.383Z,102365.22
2022-11-30T01:40:00.948Z,102364.25
2022-11-30T01:40:32.324Z,102363.63
2022-11-30T01:41:07.422Z,102368.56
2022-11-30T01:41:41.224Z,102369.84
2022-11-30T01:42:20.253Z,102367.94
2022-11-30T01:42:51.592Z,102363.13
2022-11-30T01:43:37.780Z,102370.34
2022-11-30T01:44:19.481Z,102367.63
2022-11-30T01:44:56.663Z,102369.53
2022-11-30T01:45:28.081Z,102366.03
2022-11-30T01:45:59.493Z,102368.75
2022-11-30T01:46:38.432Z,102364.75
2022-11-30T01:47:11.808Z,102358.50
2022-11-30T01:47:51.957Z,102367.44
2022-11-30T01:48:23.429Z,102370.97
2022-11-30T01:49:05.601Z,102361.53
2022-11-30T01:49:44.634Z,102369.06
2022-11-30T01:50:30.038Z,102363.94
2022-11-30T01:51:01.658Z,102364.75
2022-11-30T01:51:39.196Z,102372.09
2022-11-30T01:52:19.288Z,102361.53
2022-11-30T01:52:54.384Z,102362.34
2022-11-30T01:53:25.901Z,102363.94
2022-11-30T01:54:03.684Z,102356.44
2022-11-30T01:54:50.311Z,102357.84
2022-11-30T01:55:24.369Z,102363.94
2022-11-30T01:55:55.769Z,102359.94
2022-11-30T01:56:27.460Z,102359.16
2022-11-30T01:57:22.757Z,102370.16
2022-11-30T01:58:16.768Z,102366.16
2022-11-30T01:58:48.931Z,102371.59
2022-11-30T01:59:23.037Z,102369.69
2022-11-30T01:59:59.447Z,102364.25
2022-11-30T02:00:31.054Z,102367.59
2022-11-30T02:01:04.027Z,102363.78
2022-11-30T02:01:38.067Z,102368.09
2022-11-30T02:02:09.663Z,102365.69
2022-11-30T02:03:02.289Z,102371.59
2022-11-30T02:03:46.182Z,102373.19
2022-11-30T02:04:47.231Z,102368.88
2022-11-30T02:05:20.318Z,102368.09
2022-11-30T02:05:51.919Z,102368.09
2022-11-30T02:06:25.247Z,102368.88
2022-11-30T02:06:58.322Z,102371.59
2022-11-30T02:07:29.756Z,102368.09
2022-11-30T02:08:01.715Z,102368.88
2022-11-30T02:08:33.419Z,102366.47
2022-11-30T02:09:05.068Z,102371.59
2022-11-30T02:09:43.190Z,102364.56
2022-11-30T02:10:17.926Z,102367.28
2022-11-30T02:10:55.671Z,102364.56
2022-11-30T02:11:28.685Z,102364.56
2022-11-30T02:12:01.190Z,102367.28
2022-11-30T02:12:41.848Z,102361.84
2022-11-30T02:13:20.438Z,102365.38
2022-11-30T02:14:16.284Z,102370.00
2022-11-30T02:14:53.722Z,102370.00
2022-11-30T02:15:31.378Z,102368.41
2022-11-30T02:16:35.183Z,102364.56
2022-11-30T02:17:27.156Z,102363.28
2022-11-30T02:18:09.478Z,102369.50
2022-11-30T02:18:54.449Z,102367.94
2022-11-30T02:19:47.568Z,102366.00
2022-11-30T02:20:56.074Z,102369.84
2022-11-30T02:21:41.082Z,102370.19
2022-11-30T02:22:32.706Z,102363.94
2022-11-30T02:23:41.804Z,102375.59
2022-11-30T02:24:28.022Z,102375.91
2022-11-30T02:25:16.595Z,102374.31
2022-11-30T02:26:11.394Z,102370.81
2022-11-30T02:26:48.577Z,102367.28
2022-11-30T02:27:53.732Z,102382.78
2022-11-30T02:28:36.857Z,102376.53
2022-11-30T02:29:29.822Z,102374.16
2022-11-30T02:30:06.843Z,102374.16
2022-11-30T02:30:42.899Z,102375.25
2022-11-30T02:31:20.444Z,102370.94
2022-11-30T02:32:05.230Z,102373.66
2022-11-30T02:32:44.803Z,102374.47
2022-11-30T02:33:25.502Z,102370.94
2022-11-30T02:33:59.340Z,102377.97
2022-11-30T02:34:34.132Z,102376.38
2022-11-30T02:35:07.787Z,102377.16
2022-11-30T02:35:44.074Z,102373.66
2022-11-30T02:36:16.021Z,102374.78
2022-11-30T02:36:48.288Z,102381.00
2022-11-30T02:37:22.449Z,102368.53
2022-11-30T02:37:54.729Z,102375.41
2022-11-30T02:38:45.540Z,102370.78
2022-11-30T02:39:21.163Z,102375.88
2022-11-30T02:39:52.679Z,102373.97
2022-11-30T02:40:27.242Z,102377.00
2022-11-30T02:41:00.700Z,102368.69
2022-11-30T02:41:38.250Z,102377.00
2022-11-30T02:42:14.560Z,102373.81
2022-11-30T02:42:48.150Z,102372.19
2022-11-30T02:43:26.230Z,102379.22
2022-11-30T02:44:01.201Z,102379.22
2022-11-30T02:44:32.679Z,102373.81
2022-11-30T02:45:04.911Z,102371.41
2022-11-30T02:45:45.027Z,102373.81
2022-11-30T02:46:26.615Z,102372.19
2022-11-30T02:47:15.306Z,102380.03
2022-11-30T02:48:09.926Z,102378.44
2022-11-30T02:48:52.162Z,102375.72
2022-11-30T02:49:30.579Z,102378.44
2022-11-30T02:50:08.655Z,102382.25
2022-11-30T02:50:48.502Z,102385.75
2022-11-30T02:51:24.505Z,102380.66
2022-11-30T02:51:58.379Z,102381.44
2022-11-30T02:52:31.876Z,102379.41
2022-11-30T02:53:03.355Z,102376.69
2022-11-30T02:53:34.834Z,102385.28
2022-11-30T02:54:06.338Z,102376.19
2022-11-30T02:54:38.056Z,102380.66
2022-11-30T02:55:14.681Z,102377.47
2022-11-30T02:55:48.333Z,102371.56
2022-11-30T02:56:20.565Z,102382.91
2022-11-30T02:56:51.999Z,102380.03
2022-11-30T02:57:23.345Z,102379.72
2022-11-30T02:57:54.743Z,102387.53
2022-11-30T02:58:26.423Z,102389.13
2022-11-30T02:58:57.969Z,102376.69
2022-11-30T02:59:29.866Z,102383.72
2022-11-30T03:00:06.902Z,102382.91
2022-11-30T03:00:38.292Z,102385.28
2022-11-30T03:01:09.713Z,102379.41
2022-11-30T03:01:42.729Z,102387.19
2022-11-30T03:02:14.452Z,102389.13
2022-11-30T03:02:46.020Z,102388.34
2022-11-30T03:03:17.473Z,102392.47
2022-11-30T03:03:48.980Z,102386.75
2022-11-30T03:04:20.346Z,102382.41
2022-11-30T03:05:12.043Z,102385.13
2022-11-30T03:05:43.383Z,102394.56
2022-11-30T03:06:14.750Z,102392.97
2022-11-30T03:06:46.143Z,102390.25
2022-11-30T03:07:17.568Z,102392.47
2022-11-30T03:07:49.217Z,102397.28
2022-11-30T03:08:20.631Z,102389.75
2022-11-30T03:08:53.501Z,102392.16
2022-11-30T03:09:25.111Z,102386.25
2022-11-30T03:10:00.256Z,102390.88
2022-11-30T03:10:31.658Z,102389.75
2022-11-30T03:11:04.728Z,102391.34
2022-11-30T03:11:37.029Z,102380.03
2022-11-30T03:12:08.467Z,102393.28
2022-11-30T03:12:39.810Z,102390.88
2022-11-30T03:13:11.377Z,102392.47
2022-11-30T03:13:43.093Z,102393.59
2022-11-30T03:14:14.547Z,102391.50
2022-11-30T03:14:53.931Z,102382.56
2022-11-30T03:15:25.946Z,102394.38
2022-11-30T03:15:57.357Z,102388.16
2022-11-30T03:16:28.828Z,102392.47
2022-11-30T03:17:00.601Z,102388.16
2022-11-30T03:17:31.946Z,102387.38
2022-11-30T03:18:04.407Z,102388.16
2022-11-30T03:18:36.190Z,102390.06
2022-11-30T03:19:07.958Z,102381.13
2022-11-30T03:19:39.505Z,102384.97
2022-11-30T03:20:11.215Z,102391.19
2022-11-30T03:20:43.250Z,102376.34
2022-11-30T03:21:14.608Z,102384.97
2022-11-30T03:21:47.823Z,102382.88
2022-11-30T03:22:19.226Z,102388.47
2022-11-30T03:22:50.697Z,102390.38
2022-11-30T03:23:22.221Z,102387.19
2022-11-30T03:23:55.970Z,102390.69
2022-11-30T03:24:27.526Z,102395.81
2022-11-30T03:24:59.065Z,102392.63
2022-11-30T03:25:30.904Z,102396.94
2022-11-30T03:26:03.418Z,102394.22
2022-11-30T03:26:34.871Z,102391.81
2022-11-30T03:27:06.263Z,102385.91
2022-11-30T03:27:37.854Z,102378.56
2022-11-30T03:28:09.333Z,102380.78
2022-11-30T03:28:40.802Z,102388.00
2022-11-30T03:29:31.034Z,102390.69
2022-11-30T03:30:03.093Z,102393.09
2022-11-30T03:30:34.493Z,102386.38
2022-11-30T03:31:06.103Z,102392.94
2022-11-30T03:31:37.718Z,102389.91
2022-11-30T03:32:09.472Z,102387.81
2022-11-30T03:32:40.884Z,102393.72
2022-11-30T03:33:12.264Z,102395.63
2022-11-30T03:33:49.236Z,102391.31
2022-11-30T03:34:20.765Z,102387.00
2022-11-30T03:34:52.262Z,102390.53
2022-11-30T03:35:23.870Z,102388.94
2022-11-30T03:36:10.358Z,102394.34
2022-11-30T03:36:41.778Z,102397.56
2022-11-30T03:37:31.992Z,102395.63
2022-11-30T03:38:03.339Z,102407.59
2022-11-30T03:38:35.000Z,102402.97
2022-11-30T03:39:09.495Z,102393.25
2022-11-30T03:39:41.182Z,102401.38
2022-11-30T03:40:12.838Z,102400.56
2022-11-30T03:40:47.167Z,102396.56
2022-11-30T03:41:18.909Z,102393.25
2022-11-30T03:41:50.957Z,102401.53
2022-11-30T03:42:22.307Z,102400.25
2022-11-30T03:42:53.744Z,102389.72
2022-11-30T03:43:25.184Z,102395.94
2022-11-30T03:43:56.691Z,102398.84
2022-11-30T03:44:29.772Z,102388.94
2022-11-30T03:45:01.124Z,102403.78
2022-11-30T03:45:32.534Z,102395.47
2022-11-30T03:46:04.317Z,102397.56
2022-11-30T03:46:35.906Z,102393.25
2022-11-30T03:47:07.500Z,102390.84
2022-11-30T03:47:38.932Z,102401.06
2022-11-30T03:48:10.244Z,102393.25
2022-11-30T03:48:41.654Z,102401.06
2022-11-30T03:49:16.374Z,102398.66
2022-11-30T03:49:47.747Z,102399.28
2022-11-30T03:50:19.149Z,102395.47
2022-11-30T03:50:51.042Z,102398.81
2022-11-30T03:51:22.584Z,102396.25
2022-11-30T03:51:56.245Z,102398.47
2022-11-30T03:52:27.969Z,102400.25
2022-11-30T03:52:59.285Z,102401.38
2022-11-30T03:53:33.031Z,102396.75
2022-11-30T03:54:04.456Z,102394.84
2022-11-30T03:54:36.099Z,102390.03
2022-11-30T03:55:08.117Z,102391.94
2022-11-30T03:55:39.518Z,102392.13
2022-11-30T03:56:11.853Z,102392.13
2022-11-30T03:56:43.256Z,102392.75
2022-11-30T03:57:14.644Z,102394.66
2022-11-30T03:57:46.079Z,102397.88
2022-11-30T03:58:17.624Z,102397.38
2022-11-30T03:58:49.069Z,102396.56
2022-11-30T03:59:20.768Z,102397.38
2022-11-30T03:59:52.380Z,102390.34
2022-11-30T04:00:23.936Z,102397.69
2022-11-30T04:01:00.880Z,102401.69
2022-11-30T04:01:32.566Z,102402.97
2022-11-30T04:02:04.101Z,102397.88
2022-11-30T04:02:38.948Z,102400.88
2022-11-30T04:03:13.121Z,102412.22
2022-11-30T04:03:44.914Z,102401.38
2022-11-30T04:04:16.510Z,102393.38
2022-11-30T04:04:48.339Z,102410.13
2022-11-30T04:05:23.082Z,102403.91
2022-11-30T04:05:57.627Z,102398.81
2022-11-30T04:06:29.138Z,102398.00
2022-11-30T04:07:00.741Z,102397.69
2022-11-30T04:07:32.116Z,102402.00
2022-11-30T04:08:06.298Z,102406.31
2022-11-30T04:08:38.419Z,102403.59
2022-11-30T04:09:10.731Z,102414.13
2022-11-30T04:09:42.355Z,102407.91
2022-11-30T04:10:13.751Z,102405.50
2022-11-30T04:10:51.203Z,102416.84
2022-11-30T04:11:22.624Z,102400.72
2022-11-30T04:11:54.011Z,102407.91
2022-11-30T04:12:25.341Z,102406.31
2022-11-30T04:12:56.758Z,102408.22
2022-11-30T04:13:29.295Z,102404.22
2022-11-30T04:14:02.461Z,102401.50
2022-11-30T04:14:33.913Z,102407.09
2022-11-30T04:15:05.960Z,102405.03
2022-11-30T04:15:37.542Z,102405.81
2022-11-30T04:16:09.462Z,102413.34
2022-11-30T04:16:40.924Z,102405.50
2022-11-30T04:17:12.323Z,102406.13
2022-11-30T04:17:43.900Z,102405.34
2022-11-30T04:18:15.796Z,102411.56
2022-11-30T04:18:50.353Z,102402.31
2022-11-30T04:19:21.763Z,102410.13
2022-11-30T04:19:53.123Z,102414.44
2022-11-30T04:20:24.518Z,102410.13
2022-11-30T04:20:59.938Z,102409.97
2022-11-30T04:21:31.506Z,102397.84
2022-11-30T04:22:02.877Z,102401.03
2022-11-30T04:22:34.391Z,102403.72
2022-11-30T04:23:08.608Z,102406.00
2022-11-30T04:23:40.414Z,102403.28
2022-11-30T04:24:12.070Z,102403.72
2022-11-30T04:24:43.505Z,102403.72
2022-11-30T04:25:17.838Z,102405.19
2022-11-30T04:25:50.006Z,102400.06
2022-11-30T04:26:21.566Z,102406.44
2022-11-30T04:26:53.081Z,102404.38
2022-11-30T04:27:24.493Z,102402.78
2022-11-30T04:27:58.797Z,102408.69
2022-11-30T04:28:30.229Z,102405.19
2022-11-30T04:29:04.485Z,102413.00
2022-11-30T04:29:36.266Z,102415.72
2022-11-30T04:30:08.342Z,102408.34
2022-11-30T04:30:40.207Z,102408.34
2022-11-30T04:31:30.374Z,102410.28
2022-11-30T04:32:01.837Z,102414.56
2022-11-30T04:32:33.275Z,102411.41
2022-11-30T04:33:05.338Z,102414.91
2022-11-30T04:33:36.682Z,102415.22
2022-11-30T04:34:08.156Z,102417.63
2022-11-30T04:34:39.488Z,102406.59
2022-11-30T04:35:11.530Z,102416.34
2022-11-30T04:35:50.174Z,102413.94
2022-11-30T04:36:21.914Z,102408.84
2022-11-30T04:36:57.412Z,102414.75
2022-11-30T04:37:31.775Z,102409.94
2022-11-30T04:38:03.297Z,102409.16
2022-11-30T04:38:38.855Z,102411.84
2022-11-30T04:39:10.349Z,102410.25
2022-11-30T04:39:41.823Z,102407.22
2022-11-30T04:40:13.400Z,102408.84
2022-11-30T04:40:45.026Z,102413.44
2022-11-30T04:41:16.780Z,102408.66
2022-11-30T04:41:48.210Z,102409.94
2022-11-30T04:42:19.598Z,102417.75
2022-11-30T04:42:51.083Z,102411.06
2022-11-30T04:43:23.572Z,102410.25
2022-11-30T04:43:54.970Z,102417.28
2022-11-30T04:44:26.398Z,102409.16
2022-11-30T04:44:57.996Z,102405.13
2022-11-30T04:45:35.085Z,102418.38
2022-11-30T04:46:07.406Z,102409.44
2022-11-30T04:46:38.974Z,102411.53
2022-11-30T04:47:12.072Z,102400.53
2022-11-30T04:47:43.794Z,102408.34
2022-11-30T04:48:16.572Z,102404.03
2022-11-30T04:48:48.179Z,102404.84
2022-11-30T04:49:19.638Z,102407.06
2022-11-30T04:49:54.178Z,102411.53
2022-11-30T04:50:25.697Z,102409.44
2022-11-30T04:51:05.983Z,102419.69
2022-11-30T04:51:37.452Z,102410.25
2022-11-30T04:52:08.940Z,102400.84
2022-11-30T04:52:43.199Z,102407.84
2022-11-30T04:53:14.779Z,102416.97
2022-11-30T04:53:46.200Z,102399.72
2022-11-30T04:54:17.551Z,102402.75
2022-11-30T04:54:52.324Z,102404.34
2022-11-30T04:55:24.104Z,102410.25
2022-11-30T04:55:55.833Z,102407.53
2022-11-30T04:56:27.175Z,102408.16
2022-11-30T04:56:58.679Z,102400.03
2022-11-30T04:57:30.661Z,102409.44
2022-11-30T04:58:05.555Z,102409.75
2022-11-30T04:58:38.931Z,102410.88
2022-11-30T04:59:10.479Z,102406.25
2022-11-30T04:59:41.908Z,102416.16
2022-11-30T05:00:15.583Z,102411.53
2022-11-30T05:00:49.082Z,102418.88
2022-11-30T05:01:20.669Z,102418.06
2022-11-30T05:01:52.116Z,102411.38
2022-11-30T05:02:23.472Z,102414.88
2022-11-30T05:02:56.454Z,102406.75
2022-11-30T05:03:28.019Z,102414.38
2022-11-30T05:04:01.491Z,102413.28
2022-11-30T05:04:33.061Z,102415.19
2022-11-30T05:05:07.302Z,102411.38
2022-11-30T05:05:38.656Z,102413.75
2022-11-30T05:06:10.316Z,102413.28
2022-11-30T05:06:41.931Z,102421.91
2022-11-30T05:07:15.471Z,102410.06
2022-11-30T05:08:15.136Z,102411.06
2022-11-30T05:08:46.647Z,102420.00
2022-11-30T05:09:18.217Z,102407.84
2022-11-30T05:09:49.689Z,102417.59
2022-11-30T05:10:21.450Z,102418.38
2022-11-30T05:10:54.176Z,102414.88
2022-11-30T05:11:25.495Z,102420.59
2022-11-30T05:11:56.900Z,102420.00
2022-11-30T05:12:28.300Z,102417.09
2022-11-30T05:12:59.768Z,102421.09
2022-11-30T05:13:31.277Z,102417.28
2022-11-30T05:14:02.808Z,102415.19
2022-11-30T05:14:34.388Z,102418.69
2022-11-30T05:15:06.466Z,102421.91
2022-11-30T05:15:37.815Z,102419.50
2022-11-30T05:16:10.657Z,102414.69
2022-11-30T05:16:42.366Z,102416.28
2022-11-30T05:17:13.793Z,102414.38
2022-11-30T05:17:45.257Z,102415.50
2022-11-30T05:18:16.852Z,102418.06
2022-11-30T05:18:48.303Z,102421.41
2022-11-30T05:19:19.891Z,102411.97
2022-11-30T05:19:53.397Z,102408.47
2022-11-30T05:20:24.913Z,102413.91
2022-11-30T05:20:56.293Z,102415.97
2022-11-30T05:21:27.626Z,102415.50
2022-11-30T05:21:59.035Z,102412.78
2022-11-30T05:22:30.467Z,102419.81
2022-11-30T05:23:01.897Z,102417.91
2022-11-30T05:23:33.595Z,102415.97
2022-11-30T05:24:05.215Z,102418.69
2022-11-30T05:24:37.105Z,102418.22
2022-11-30T05:25:27.001Z,102421.09
2022-11-30T05:26:01.830Z,102424.13
2022-11-30T05:26:34.454Z,102416.91
2022-11-30T05:27:12.703Z,102417.72
2022-11-30T05:27:45.908Z,102414.38
2022-11-30T05:28:17.344Z,102414.69
2022-11-30T05:28:48.751Z,102417.72
2022-11-30T05:29:20.350Z,102414.53
2022-11-30T05:29:51.749Z,102414.03
2022-11-30T05:30:24.356Z,102416.44
2022-11-30T05:30:55.858Z,102413.72
2022-11-30T05:31:27.359Z,102414.03
2022-11-30T05:32:01.921Z,102421.53
2022-11-30T05:32:33.410Z,102418.03
2022-11-30T05:33:05.052Z,102416.75
2022-11-30T05:33:36.614Z,102409.25
2022-11-30T05:34:08.202Z,102417.38
2022-11-30T05:34:50.487Z,102421.06
2022-11-30T05:35:22.257Z,102414.38
2022-11-30T05:35:56.727Z,102422.16
2022-11-30T05:36:30.564Z,102410.84
2022-11-30T05:37:02.071Z,102415.63
2022-11-30T05:37:33.671Z,102417.38
2022-11-30T05:38:05.575Z,102408.94
2022-11-30T05:38:36.949Z,102424.06
2022-11-30T05:39:08.401Z,102421.34
2022-11-30T05:39:39.791Z,102413.06
2022-11-30T05:40:11.588Z,102408.16
2022-11-30T05:40:43.105Z,102412.75
2022-11-30T05:41:14.946Z,102410.06
2022-11-30T05:41:46.493Z,102410.38
2022-11-30T05:42:18.083Z,102411.97
2022-11-30T05:42:55.206Z,102418.19
2022-11-30T05:43:26.892Z,102413.56
2022-11-30T05:43:58.676Z,102410.50
2022-11-30T05:44:32.711Z,102413.88
2022-11-30T05:45:04.514Z,102419.00
2022-11-30T05:45:35.971Z,102417.38
2022-11-30T05:46:09.324Z,102416.59
2022-11-30T05:46:41.266Z,102409.38
2022-11-30T05:47:15.158Z,102416.91
2022-11-30T05:47:47.965Z,102415.91
2022-11-30T05:48:19.566Z,102416.91
2022-11-30T05:48:50.948Z,102421.50
2022-11-30T05:49:22.670Z,102419.13
2022-11-30T05:49:54.017Z,102416.41
2022-11-30T05:50:25.389Z,102423.44
2022-11-30T05:51:11.319Z,102420.84
2022-11-30T05:51:42.719Z,102431.06
2022-11-30T05:52:14.195Z,102417.50
2022-11-30T05:52:45.634Z,102429.97
2022-11-30T05:53:17.103Z,102429.97
2022-11-30T05:53:48.864Z,102425.66
2022-11-30T05:54:20.255Z,102427.56
2022-11-30T05:54:51.610Z,102428.97
2022-11-30T05:55:24.158Z,102424.66
2022-11-30T05:55:55.610Z,102424.16
2022-11-30T05:56:27.218Z,102420.66
2022-11-30T05:56:58.627Z,102421.97
2022-11-30T05:57:30.034Z,102423.88
2022-11-30T05:58:03.796Z,102422.25
2022-11-30T05:58:35.882Z,102431.69
2022-11-30T05:59:07.282Z,102424.34
2022-11-30T05:59:38.846Z,102423.06
2022-11-30T06:00:11.015Z,102427.88
2022-11-30T06:00:42.748Z,102431.69
2022-11-30T06:01:26.201Z,102426.56
2022-11-30T06:01:57.622Z,102434.88
2022-11-30T06:02:29.131Z,102437.91
2022-11-30T06:03:00.798Z,102432.31
2022-11-30T06:03:34.018Z,102438.72
2022-11-30T06:04:08.858Z,102430.56
2022-11-30T06:04:43.400Z,102433.09
2022-11-30T06:05:14.815Z,102432.31
2022-11-30T06:05:49.382Z,102427.19
2022-11-30T06:06:21.657Z,102432.00
2022-11-30T06:06:55.579Z,102439.81
2022-11-30T06:07:27.226Z,102435.50
2022-11-30T06:07:59.740Z,102432.78
2022-11-30T06:08:31.330Z,102436.94
2022-11-30T06:09:02.807Z,102436.94
2022-11-30T06:09:34.315Z,102439.31
2022-11-30T06:10:06.350Z,102431.50
2022-11-30T06:10:37.860Z,102432.59
2022-11-30T06:11:09.298Z,102429.09
2022-11-30T06:11:40.972Z,102433.22
2022-11-30T06:12:12.479Z,102434.34
2022-11-30T06:12:43.970Z,102443.75
2022-11-30T06:13:15.726Z,102437.22
2022-11-30T06:13:47.088Z,102431.63
2022-11-30T06:14:18.506Z,102436.59
2022-11-30T06:14:51.127Z,102434.34
2022-11-30T06:15:22.649Z,102439.75
2022-11-30T06:15:54.159Z,102429.88
2022-11-30T06:16:28.336Z,102432.59
2022-11-30T06:16:59.864Z,102432.59
2022-11-30T06:17:32.600Z,102439.59
2022-11-30T06:18:05.529Z,102437.69
2022-11-30T06:18:37.889Z,102440.41
2022-11-30T06:19:09.364Z,102432.88
2022-11-30T06:19:40.716Z,102440.41
2022-11-30T06:20:12.572Z,102434.00
2022-11-30T06:20:44.024Z,102446.44
2022-11-30T06:21:19.589Z,102444.53
2022-11-30T06:21:54.450Z,102435.41
2022-11-30T06:22:25.898Z,102439.22
2022-11-30T06:22:58.887Z,102438.75
2022-11-30T06:23:40.568Z,102444.66
2022-11-30T06:24:12.466Z,102445.25
2022-11-30T06:24:44.048Z,102438.56
2022-11-30T06:25:15.681Z,102449.09
2022-11-30T06:25:47.404Z,102439.66